sensor_id;sensor_type;location;lat;lon;timestamp;temperature;humidity
33328;DHT22;19692;52.998;9.116;2024-01-06T00:01:49;2.00;99.90
33328;DHT22;19692;52.998;9.116;2024-01-06T00:04:15;2.00;99.90
33328;DHT22;19692;52.998;9.116;2024-01-06T00:06:41;2.00;99.90
33328;DHT22;19692;52.998;9.116;2024-01-06T00:09:07;2.00;99.90
33328;DHT22;19692;52.998;9.116;2024-01-06T00:11:33;2.00;99.90
33328;DHT22;19692;52.998;9.116;2024-01-06T00:13:59;2.00;99.90
33328;DHT22;19692;52.998;9.116;2024-01-06T00:16:24;2.00;99.90
33328;DHT22;19692;52.998;9.116;2024-01-06T00:18:50;2.00;99.90
33328;DHT22;19692;52.998;9.116;2024-01-06T00:21:16;2.00;99.90
33328;DHT22;19692;52.998;9.116;2024-01-06T00:23:42;1.90;99.90
33328;DHT22;19692;52.998;9.116;2024-01-06T00:26:09;2.00;99.90
33328;DHT22;19692;52.998;9.116;2024-01-06T00:28:35;2.00;99.90
33328;DHT22;19692;52.998;9.116;2024-01-06T00:31:01;2.00;99.90
33328;DHT22;19692;52.998;9.116;2024-01-06T00:33:27;1.90;99.90
33328;DHT22;19692;52.998;9.116;2024-01-06T00:35:53;1.90;99.90
33328;DHT22;19692;52.998;9.116;2024-01-06T00:38:20;1.90;99.90
33328;DHT22;19692;52.998;9.116;2024-01-06T00:40:46;1.90;99.90
33328;DHT22;19692;52.998;9.116;2024-01-06T00:43:11;1.90;99.90
33328;DHT22;19692;52.998;9.116;2024-01-06T00:45:37;1.90;99.90
33328;DHT22;19692;52.998;9.116;2024-01-06T00:48:04;1.90;99.90
33328;DHT22;19692;52.998;9.116;2024-01-06T00:50:30;1.90;99.90
33328;DHT22;19692;52.998;9.116;2024-01-06T00:52:55;1.90;99.90
33328;DHT22;19692;52.998;9.116;2024-01-06T00:55:22;1.90;99.90
33328;DHT22;19692;52.998;9.116;2024-01-06T00:57:49;1.90;99.90
33328;DHT22;19692;52.998;9.116;2024-01-06T01:00:15;1.90;99.90
33328;DHT22;19692;52.998;9.116;2024-01-06T01:02:40;1.90;99.90
33328;DHT22;19692;52.998;9.116;2024-01-06T01:05:06;1.90;99.90
33328;DHT22;19692;52.998;9.116;2024-01-06T01:07:33;1.90;99.90
33328;DHT22;19692;52.998;9.116;2024-01-06T01:09:59;1.90;99.90
33328;DHT22;19692;52.998;9.116;2024-01-06T01:12:25;1.90;99.90
33328;DHT22;19692;52.998;9.116;2024-01-06T01:14:51;1.90;99.90
33328;DHT22;19692;52.998;9.116;2024-01-06T01:17:17;1.90;99.90
33328;DHT22;19692;52.998;9.116;2024-01-06T01:19:43;1.90;99.90
33328;DHT22;19692;52.998;9.116;2024-01-06T01:22:09;1.90;99.90
33328;DHT22;19692;52.998;9.116;2024-01-06T01:24:35;1.90;99.90
33328;DHT22;19692;52.998;9.116;2024-01-06T01:27:00;1.90;99.90
33328;DHT22;19692;52.998;9.116;2024-01-06T01:29:26;1.90;99.90
33328;DHT22;19692;52.998;9.116;2024-01-06T01:31:52;1.90;99.90
33328;DHT22;19692;52.998;9.116;2024-01-06T01:34:18;1.90;99.90
33328;DHT22;19692;52.998;9.116;2024-01-06T01:36:43;1.90;99.90
33328;DHT22;19692;52.998;9.116;2024-01-06T01:39:09;1.90;99.90
33328;DHT22;19692;52.998;9.116;2024-01-06T01:41:35;1.90;99.90
33328;DHT22;19692;52.998;9.116;2024-01-06T01:44:01;1.90;99.90
33328;DHT22;19692;52.998;9.116;2024-01-06T01:46:28;1.90;99.90
33328;DHT22;19692;52.998;9.116;2024-01-06T01:48:56;1.90;99.90
33328;DHT22;19692;52.998;9.116;2024-01-06T01:51:26;1.80;99.90
33328;DHT22;19692;52.998;9.116;2024-01-06T01:53:53;1.90;99.90
33328;DHT22;19692;52.998;9.116;2024-01-06T01:56:19;1.90;99.90
33328;DHT22;19692;52.998;9.116;2024-01-06T01:58:46;1.90;99.90
33328;DHT22;19692;52.998;9.116;2024-01-06T02:01:13;1.90;99.90
33328;DHT22;19692;52.998;9.116;2024-01-06T02:03:41;1.90;99.90
33328;DHT22;19692;52.998;9.116;2024-01-06T02:06:09;1.90;99.90
33328;DHT22;19692;52.998;9.116;2024-01-06T02:08:35;1.90;99.90
33328;DHT22;19692;52.998;9.116;2024-01-06T02:11:01;1.90;99.90
33328;DHT22;19692;52.998;9.116;2024-01-06T02:13:33;1.90;99.90
33328;DHT22;19692;52.998;9.116;2024-01-06T02:16:03;1.90;99.90
33328;DHT22;19692;52.998;9.116;2024-01-06T02:18:33;1.90;99.90
33328;DHT22;19692;52.998;9.116;2024-01-06T02:21:01;1.90;99.90
33328;DHT22;19692;52.998;9.116;2024-01-06T02:23:28;1.90;99.90
33328;DHT22;19692;52.998;9.116;2024-01-06T02:25:54;1.90;99.90
33328;DHT22;19692;52.998;9.116;2024-01-06T02:28:20;1.80;99.90
33328;DHT22;19692;52.998;9.116;2024-01-06T02:30:46;1.80;99.90
33328;DHT22;19692;52.998;9.116;2024-01-06T02:33:11;1.80;99.90
33328;DHT22;19692;52.998;9.116;2024-01-06T02:35:37;1.80;99.90
33328;DHT22;19692;52.998;9.116;2024-01-06T02:38:03;1.80;99.90
33328;DHT22;19692;52.998;9.116;2024-01-06T02:40:29;1.80;99.90
33328;DHT22;19692;52.998;9.116;2024-01-06T02:42:54;1.90;99.90
33328;DHT22;19692;52.998;9.116;2024-01-06T02:45:20;1.80;99.90
33328;DHT22;19692;52.998;9.116;2024-01-06T02:47:46;1.80;99.90
33328;DHT22;19692;52.998;9.116;2024-01-06T02:50:12;1.90;99.90
33328;DHT22;19692;52.998;9.116;2024-01-06T02:52:37;1.80;99.90
33328;DHT22;19692;52.998;9.116;2024-01-06T02:55:03;1.80;99.90
33328;DHT22;19692;52.998;9.116;2024-01-06T02:57:30;1.80;99.90
33328;DHT22;19692;52.998;9.116;2024-01-06T02:59:56;1.80;99.90
33328;DHT22;19692;52.998;9.116;2024-01-06T03:02:22;1.80;99.90
33328;DHT22;19692;52.998;9.116;2024-01-06T03:04:47;1.80;99.90
33328;DHT22;19692;52.998;9.116;2024-01-06T03:07:13;1.80;99.90
33328;DHT22;19692;52.998;9.116;2024-01-06T03:09:39;1.90;99.90
33328;DHT22;19692;52.998;9.116;2024-01-06T03:12:08;1.90;99.90
33328;DHT22;19692;52.998;9.116;2024-01-06T03:14:37;1.90;99.90
33328;DHT22;19692;52.998;9.116;2024-01-06T03:17:04;1.90;99.90
33328;DHT22;19692;52.998;9.116;2024-01-06T03:19:33;1.80;99.90
33328;DHT22;19692;52.998;9.116;2024-01-06T03:21:58;1.80;99.90
33328;DHT22;19692;52.998;9.116;2024-01-06T03:24:26;1.80;99.90
33328;DHT22;19692;52.998;9.116;2024-01-06T03:26:52;1.80;99.90
33328;DHT22;19692;52.998;9.116;2024-01-06T03:29:18;1.90;99.90
33328;DHT22;19692;52.998;9.116;2024-01-06T03:31:44;1.80;99.90
33328;DHT22;19692;52.998;9.116;2024-01-06T03:34:11;1.80;99.90
33328;DHT22;19692;52.998;9.116;2024-01-06T03:36:40;1.90;99.90
33328;DHT22;19692;52.998;9.116;2024-01-06T03:39:06;1.90;99.90
33328;DHT22;19692;52.998;9.116;2024-01-06T03:41:32;1.90;99.90
33328;DHT22;19692;52.998;9.116;2024-01-06T03:43:58;1.90;99.90
33328;DHT22;19692;52.998;9.116;2024-01-06T03:46:24;1.80;99.90
33328;DHT22;19692;52.998;9.116;2024-01-06T03:48:50;1.80;99.90
33328;DHT22;19692;52.998;9.116;2024-01-06T03:51:16;1.80;99.90
33328;DHT22;19692;52.998;9.116;2024-01-06T03:53:41;1.80;99.90
33328;DHT22;19692;52.998;9.116;2024-01-06T03:56:07;1.80;99.90
33328;DHT22;19692;52.998;9.116;2024-01-06T03:58:34;1.80;99.90
33328;DHT22;19692;52.998;9.116;2024-01-06T04:01:00;1.80;99.90
33328;DHT22;19692;52.998;9.116;2024-01-06T04:03:25;1.80;99.90
33328;DHT22;19692;52.998;9.116;2024-01-06T04:05:51;1.80;99.90
33328;DHT22;19692;52.998;9.116;2024-01-06T04:08:17;1.70;99.90
33328;DHT22;19692;52.998;9.116;2024-01-06T04:10:44;1.70;99.90
33328;DHT22;19692;52.998;9.116;2024-01-06T04:13:11;1.80;99.90
33328;DHT22;19692;52.998;9.116;2024-01-06T04:15:37;1.70;99.90
33328;DHT22;19692;52.998;9.116;2024-01-06T04:18:04;1.70;99.90
33328;DHT22;19692;52.998;9.116;2024-01-06T04:20:30;1.70;99.90
33328;DHT22;19692;52.998;9.116;2024-01-06T04:22:57;1.80;99.90
33328;DHT22;19692;52.998;9.116;2024-01-06T04:25:22;1.70;99.90
33328;DHT22;19692;52.998;9.116;2024-01-06T04:27:48;1.70;99.90
33328;DHT22;19692;52.998;9.116;2024-01-06T04:30:15;1.70;99.90
33328;DHT22;19692;52.998;9.116;2024-01-06T04:32:42;1.60;99.90
33328;DHT22;19692;52.998;9.116;2024-01-06T04:35:08;1.60;99.90
33328;DHT22;19692;52.998;9.116;2024-01-06T04:37:34;1.60;99.90
33328;DHT22;19692;52.998;9.116;2024-01-06T04:40:00;1.60;99.90
33328;DHT22;19692;52.998;9.116;2024-01-06T04:42:26;1.60;99.90
33328;DHT22;19692;52.998;9.116;2024-01-06T04:44:52;1.60;99.90
33328;DHT22;19692;52.998;9.116;2024-01-06T04:47:18;1.60;99.90
33328;DHT22;19692;52.998;9.116;2024-01-06T04:49:44;1.50;99.90
33328;DHT22;19692;52.998;9.116;2024-01-06T04:52:10;1.40;99.90
33328;DHT22;19692;52.998;9.116;2024-01-06T04:54:36;1.50;99.90
33328;DHT22;19692;52.998;9.116;2024-01-06T04:57:02;1.50;99.90
33328;DHT22;19692;52.998;9.116;2024-01-06T04:59:29;1.50;99.90
33328;DHT22;19692;52.998;9.116;2024-01-06T05:01:57;1.50;99.90
33328;DHT22;19692;52.998;9.116;2024-01-06T05:04:23;1.50;99.90
33328;DHT22;19692;52.998;9.116;2024-01-06T05:06:53;1.50;99.90
33328;DHT22;19692;52.998;9.116;2024-01-06T05:09:19;1.50;99.90
33328;DHT22;19692;52.998;9.116;2024-01-06T05:11:45;1.50;99.90
33328;DHT22;19692;52.998;9.116;2024-01-06T05:14:11;1.40;99.90
33328;DHT22;19692;52.998;9.116;2024-01-06T05:16:37;1.40;99.90
33328;DHT22;19692;52.998;9.116;2024-01-06T05:19:03;1.40;99.90
33328;DHT22;19692;52.998;9.116;2024-01-06T05:21:29;1.40;99.90
33328;DHT22;19692;52.998;9.116;2024-01-06T05:23:55;1.40;99.90
33328;DHT22;19692;52.998;9.116;2024-01-06T05:26:21;1.40;99.90
33328;DHT22;19692;52.998;9.116;2024-01-06T05:28:47;1.40;99.90
33328;DHT22;19692;52.998;9.116;2024-01-06T05:31:13;1.40;99.90
33328;DHT22;19692;52.998;9.116;2024-01-06T05:33:39;1.40;99.90
33328;DHT22;19692;52.998;9.116;2024-01-06T05:36:05;1.40;99.90
33328;DHT22;19692;52.998;9.116;2024-01-06T05:38:31;1.40;99.90
33328;DHT22;19692;52.998;9.116;2024-01-06T05:40:56;1.40;99.90
33328;DHT22;19692;52.998;9.116;2024-01-06T05:43:22;1.40;99.90
33328;DHT22;19692;52.998;9.116;2024-01-06T05:45:48;1.50;99.90
33328;DHT22;19692;52.998;9.116;2024-01-06T05:48:13;1.50;99.90
33328;DHT22;19692;52.998;9.116;2024-01-06T05:50:39;1.50;99.90
33328;DHT22;19692;52.998;9.116;2024-01-06T05:53:06;1.50;99.90
33328;DHT22;19692;52.998;9.116;2024-01-06T05:55:32;1.50;99.90
33328;DHT22;19692;52.998;9.116;2024-01-06T05:57:58;1.50;99.90
33328;DHT22;19692;52.998;9.116;2024-01-06T06:00:23;1.50;99.90
33328;DHT22;19692;52.998;9.116;2024-01-06T06:02:49;1.40;99.90
33328;DHT22;19692;52.998;9.116;2024-01-06T06:05:15;1.50;99.90
33328;DHT22;19692;52.998;9.116;2024-01-06T06:07:41;1.50;99.90
33328;DHT22;19692;52.998;9.116;2024-01-06T06:10:09;1.50;99.90
33328;DHT22;19692;52.998;9.116;2024-01-06T06:12:37;1.50;99.90
33328;DHT22;19692;52.998;9.116;2024-01-06T06:15:06;1.50;99.90
33328;DHT22;19692;52.998;9.116;2024-01-06T06:17:33;1.50;99.90
33328;DHT22;19692;52.998;9.116;2024-01-06T06:19:59;1.50;99.90
33328;DHT22;19692;52.998;9.116;2024-01-06T06:22:25;1.50;99.90
33328;DHT22;19692;52.998;9.116;2024-01-06T06:24:55;1.50;99.90
33328;DHT22;19692;52.998;9.116;2024-01-06T06:27:23;1.40;99.90
33328;DHT22;19692;52.998;9.116;2024-01-06T06:29:49;1.50;99.90
33328;DHT22;19692;52.998;9.116;2024-01-06T06:32:15;1.40;99.90
33328;DHT22;19692;52.998;9.116;2024-01-06T06:34:40;1.40;99.90
33328;DHT22;19692;52.998;9.116;2024-01-06T06:37:06;1.40;99.90
33328;DHT22;19692;52.998;9.116;2024-01-06T06:39:33;1.50;99.90
33328;DHT22;19692;52.998;9.116;2024-01-06T06:41:59;1.40;99.90
33328;DHT22;19692;52.998;9.116;2024-01-06T06:44:26;1.40;99.90
33328;DHT22;19692;52.998;9.116;2024-01-06T06:46:52;1.50;99.90
33328;DHT22;19692;52.998;9.116;2024-01-06T06:49:17;1.50;99.90
33328;DHT22;19692;52.998;9.116;2024-01-06T06:51:43;1.50;99.90
33328;DHT22;19692;52.998;9.116;2024-01-06T06:54:13;1.50;99.90
33328;DHT22;19692;52.998;9.116;2024-01-06T06:56:40;1.30;99.90
33328;DHT22;19692;52.998;9.116;2024-01-06T06:59:05;1.40;99.90
33328;DHT22;19692;52.998;9.116;2024-01-06T07:01:31;1.30;99.90
33328;DHT22;19692;52.998;9.116;2024-01-06T07:03:57;1.30;99.90
33328;DHT22;19692;52.998;9.116;2024-01-06T07:06:24;1.30;99.90
33328;DHT22;19692;52.998;9.116;2024-01-06T07:08:50;1.30;99.90
33328;DHT22;19692;52.998;9.116;2024-01-06T07:11:15;1.30;99.90
33328;DHT22;19692;52.998;9.116;2024-01-06T07:13:44;1.30;99.90
33328;DHT22;19692;52.998;9.116;2024-01-06T07:16:09;1.20;99.90
33328;DHT22;19692;52.998;9.116;2024-01-06T07:18:35;1.20;99.90
33328;DHT22;19692;52.998;9.116;2024-01-06T07:21:01;1.20;99.90
33328;DHT22;19692;52.998;9.116;2024-01-06T07:23:26;1.30;99.90
33328;DHT22;19692;52.998;9.116;2024-01-06T07:25:52;1.30;99.90
33328;DHT22;19692;52.998;9.116;2024-01-06T07:28:18;1.30;99.90
33328;DHT22;19692;52.998;9.116;2024-01-06T07:30:43;1.30;99.90
33328;DHT22;19692;52.998;9.116;2024-01-06T07:33:09;1.30;99.90
33328;DHT22;19692;52.998;9.116;2024-01-06T07:35:36;1.30;99.90
33328;DHT22;19692;52.998;9.116;2024-01-06T07:38:02;1.30;99.90
33328;DHT22;19692;52.998;9.116;2024-01-06T07:40:28;1.30;99.90
33328;DHT22;19692;52.998;9.116;2024-01-06T07:42:54;1.30;99.90
33328;DHT22;19692;52.998;9.116;2024-01-06T07:45:19;1.20;99.90
33328;DHT22;19692;52.998;9.116;2024-01-06T07:47:45;1.20;99.90
33328;DHT22;19692;52.998;9.116;2024-01-06T07:50:11;1.30;99.90
33328;DHT22;19692;52.998;9.116;2024-01-06T07:52:37;1.30;99.90
33328;DHT22;19692;52.998;9.116;2024-01-06T07:55:02;1.30;99.90
33328;DHT22;19692;52.998;9.116;2024-01-06T07:57:28;1.20;99.90
33328;DHT22;19692;52.998;9.116;2024-01-06T07:59:54;1.30;99.90
33328;DHT22;19692;52.998;9.116;2024-01-06T08:02:20;1.20;99.90
33328;DHT22;19692;52.998;9.116;2024-01-06T08:04:46;1.30;99.90
33328;DHT22;19692;52.998;9.116;2024-01-06T08:07:11;1.30;99.90
33328;DHT22;19692;52.998;9.116;2024-01-06T08:09:38;1.30;99.90
33328;DHT22;19692;52.998;9.116;2024-01-06T08:12:05;1.20;99.90
33328;DHT22;19692;52.998;9.116;2024-01-06T08:14:31;1.20;99.90
33328;DHT22;19692;52.998;9.116;2024-01-06T08:16:56;1.30;99.90
33328;DHT22;19692;52.998;9.116;2024-01-06T08:19:22;1.30;99.90
33328;DHT22;19692;52.998;9.116;2024-01-06T08:21:48;1.30;99.90
33328;DHT22;19692;52.998;9.116;2024-01-06T08:24:14;1.30;99.90
33328;DHT22;19692;52.998;9.116;2024-01-06T08:26:39;1.30;99.90
33328;DHT22;19692;52.998;9.116;2024-01-06T08:29:05;1.30;99.90
33328;DHT22;19692;52.998;9.116;2024-01-06T08:31:31;1.30;99.90
33328;DHT22;19692;52.998;9.116;2024-01-06T08:33:57;1.20;99.90
33328;DHT22;19692;52.998;9.116;2024-01-06T08:36:23;1.20;99.90
33328;DHT22;19692;52.998;9.116;2024-01-06T08:38:49;1.20;99.90
33328;DHT22;19692;52.998;9.116;2024-01-06T08:41:15;1.20;99.90
33328;DHT22;19692;52.998;9.116;2024-01-06T08:43:40;1.20;99.90
33328;DHT22;19692;52.998;9.116;2024-01-06T08:46:06;1.20;99.90
33328;DHT22;19692;52.998;9.116;2024-01-06T08:48:32;1.20;99.90
33328;DHT22;19692;52.998;9.116;2024-01-06T08:50:57;1.20;99.90
33328;DHT22;19692;52.998;9.116;2024-01-06T08:53:23;1.20;99.90
33328;DHT22;19692;52.998;9.116;2024-01-06T08:55:49;1.20;99.90
33328;DHT22;19692;52.998;9.116;2024-01-06T08:58:15;1.20;99.90
33328;DHT22;19692;52.998;9.116;2024-01-06T09:00:40;1.20;99.90
33328;DHT22;19692;52.998;9.116;2024-01-06T09:03:06;1.20;99.90
33328;DHT22;19692;52.998;9.116;2024-01-06T09:05:32;1.30;99.90
33328;DHT22;19692;52.998;9.116;2024-01-06T09:07:59;1.20;99.90
33328;DHT22;19692;52.998;9.116;2024-01-06T09:10:24;1.20;99.90
33328;DHT22;19692;52.998;9.116;2024-01-06T09:12:50;1.20;99.90
33328;DHT22;19692;52.998;9.116;2024-01-06T09:15:19;1.20;99.90
33328;DHT22;19692;52.998;9.116;2024-01-06T09:17:45;1.20;99.90
33328;DHT22;19692;52.998;9.116;2024-01-06T09:20:10;1.20;99.90
33328;DHT22;19692;52.998;9.116;2024-01-06T09:22:36;1.10;99.90
33328;DHT22;19692;52.998;9.116;2024-01-06T09:25:02;1.20;99.90
33328;DHT22;19692;52.998;9.116;2024-01-06T09:27:28;1.10;99.90
33328;DHT22;19692;52.998;9.116;2024-01-06T09:29:54;1.10;99.90
33328;DHT22;19692;52.998;9.116;2024-01-06T09:32:20;1.10;99.90
33328;DHT22;19692;52.998;9.116;2024-01-06T09:34:48;1.20;99.90
33328;DHT22;19692;52.998;9.116;2024-01-06T09:37:14;1.20;99.90
33328;DHT22;19692;52.998;9.116;2024-01-06T09:39:39;1.20;99.90
33328;DHT22;19692;52.998;9.116;2024-01-06T09:42:05;1.20;99.90
33328;DHT22;19692;52.998;9.116;2024-01-06T09:44:32;1.20;99.90
33328;DHT22;19692;52.998;9.116;2024-01-06T09:46:58;1.20;99.90
33328;DHT22;19692;52.998;9.116;2024-01-06T09:49:28;1.20;99.90
33328;DHT22;19692;52.998;9.116;2024-01-06T09:52:00;1.20;99.90
33328;DHT22;19692;52.998;9.116;2024-01-06T09:54:30;1.20;99.90
33328;DHT22;19692;52.998;9.116;2024-01-06T09:57:00;1.20;99.90
33328;DHT22;19692;52.998;9.116;2024-01-06T09:59:27;1.10;99.90
33328;DHT22;19692;52.998;9.116;2024-01-06T10:01:57;1.10;99.90
33328;DHT22;19692;52.998;9.116;2024-01-06T10:04:23;1.10;99.90
33328;DHT22;19692;52.998;9.116;2024-01-06T10:06:49;1.10;99.90
33328;DHT22;19692;52.998;9.116;2024-01-06T10:09:14;1.10;99.90
33328;DHT22;19692;52.998;9.116;2024-01-06T10:11:40;1.20;99.90
33328;DHT22;19692;52.998;9.116;2024-01-06T10:14:06;1.10;99.90
33328;DHT22;19692;52.998;9.116;2024-01-06T10:16:34;1.10;99.90
33328;DHT22;19692;52.998;9.116;2024-01-06T10:19:01;1.10;99.90
33328;DHT22;19692;52.998;9.116;2024-01-06T10:21:27;1.10;99.90
33328;DHT22;19692;52.998;9.116;2024-01-06T10:23:54;1.10;99.90
33328;DHT22;19692;52.998;9.116;2024-01-06T10:26:19;1.10;99.90
33328;DHT22;19692;52.998;9.116;2024-01-06T10:28:45;1.10;99.90
33328;DHT22;19692;52.998;9.116;2024-01-06T10:31:13;1.10;99.90
33328;DHT22;19692;52.998;9.116;2024-01-06T10:33:39;1.10;99.90
33328;DHT22;19692;52.998;9.116;2024-01-06T10:36:06;1.10;99.90
33328;DHT22;19692;52.998;9.116;2024-01-06T10:38:34;1.10;99.90
33328;DHT22;19692;52.998;9.116;2024-01-06T10:41:01;1.10;99.90
33328;DHT22;19692;52.998;9.116;2024-01-06T10:43:33;1.10;99.90
33328;DHT22;19692;52.998;9.116;2024-01-06T10:46:03;1.10;99.90
33328;DHT22;19692;52.998;9.116;2024-01-06T10:48:34;1.10;99.90
33328;DHT22;19692;52.998;9.116;2024-01-06T10:51:01;1.10;99.90
33328;DHT22;19692;52.998;9.116;2024-01-06T10:53:33;1.10;99.90
33328;DHT22;19692;52.998;9.116;2024-01-06T10:56:03;1.10;99.90
33328;DHT22;19692;52.998;9.116;2024-01-06T10:58:30;1.10;99.90
33328;DHT22;19692;52.998;9.116;2024-01-06T11:00:58;1.20;99.90
33328;DHT22;19692;52.998;9.116;2024-01-06T11:03:26;1.20;99.90
33328;DHT22;19692;52.998;9.116;2024-01-06T11:05:53;1.20;99.90
33328;DHT22;19692;52.998;9.116;2024-01-06T11:08:21;1.20;99.90
33328;DHT22;19692;52.998;9.116;2024-01-06T11:10:47;1.20;99.90
33328;DHT22;19692;52.998;9.116;2024-01-06T11:13:15;1.20;99.90
33328;DHT22;19692;52.998;9.116;2024-01-06T11:15:52;1.10;99.90
33328;DHT22;19692;52.998;9.116;2024-01-06T11:18:35;1.10;99.90
33328;DHT22;19692;52.998;9.116;2024-01-06T11:21:18;1.10;99.90
33328;DHT22;19692;52.998;9.116;2024-01-06T11:24:19;1.10;99.90
33328;DHT22;19692;52.998;9.116;2024-01-06T11:26:49;1.10;99.90
33328;DHT22;19692;52.998;9.116;2024-01-06T11:29:17;1.10;99.90
33328;DHT22;19692;52.998;9.116;2024-01-06T11:32:17;1.10;99.90
33328;DHT22;19692;52.998;9.116;2024-01-06T11:34:53;1.10;99.90
33328;DHT22;19692;52.998;9.116;2024-01-06T11:42:47;1.10;99.90
33328;DHT22;19692;52.998;9.116;2024-01-06T11:45:14;1.10;99.90
33328;DHT22;19692;52.998;9.116;2024-01-06T11:47:48;1.10;99.90
33328;DHT22;19692;52.998;9.116;2024-01-06T11:50:14;1.10;99.90
33328;DHT22;19692;52.998;9.116;2024-01-06T11:52:41;1.10;99.90
33328;DHT22;19692;52.998;9.116;2024-01-06T11:55:08;1.10;99.90
33328;DHT22;19692;52.998;9.116;2024-01-06T11:57:34;1.00;99.90
33328;DHT22;19692;52.998;9.116;2024-01-06T12:00:00;1.00;99.90
33328;DHT22;19692;52.998;9.116;2024-01-06T12:02:26;1.00;99.90
33328;DHT22;19692;52.998;9.116;2024-01-06T12:04:53;1.00;99.90
33328;DHT22;19692;52.998;9.116;2024-01-06T12:07:20;1.00;99.90
33328;DHT22;19692;52.998;9.116;2024-01-06T12:10:11;1.00;99.90
33328;DHT22;19692;52.998;9.116;2024-01-06T12:12:37;0.90;99.90
33328;DHT22;19692;52.998;9.116;2024-01-06T12:15:03;0.90;99.90
33328;DHT22;19692;52.998;9.116;2024-01-06T12:17:30;0.90;99.90
33328;DHT22;19692;52.998;9.116;2024-01-06T12:19:57;0.90;99.90
33328;DHT22;19692;52.998;9.116;2024-01-06T12:22:23;0.90;99.90
33328;DHT22;19692;52.998;9.116;2024-01-06T12:24:51;0.90;99.90
33328;DHT22;19692;52.998;9.116;2024-01-06T12:27:17;0.90;99.90
33328;DHT22;19692;52.998;9.116;2024-01-06T12:29:46;1.00;99.90
33328;DHT22;19692;52.998;9.116;2024-01-06T12:32:12;0.90;99.90
33328;DHT22;19692;52.998;9.116;2024-01-06T12:34:38;1.00;99.90
33328;DHT22;19692;52.998;9.116;2024-01-06T12:37:05;0.90;99.90
33328;DHT22;19692;52.998;9.116;2024-01-06T12:39:33;0.90;99.90
33328;DHT22;19692;52.998;9.116;2024-01-06T12:42:00;0.90;99.90
33328;DHT22;19692;52.998;9.116;2024-01-06T12:44:27;0.90;99.90
33328;DHT22;19692;52.998;9.116;2024-01-06T12:46:54;0.90;99.90
33328;DHT22;19692;52.998;9.116;2024-01-06T12:49:19;0.90;99.90
33328;DHT22;19692;52.998;9.116;2024-01-06T12:51:45;0.90;99.90
33328;DHT22;19692;52.998;9.116;2024-01-06T12:54:11;0.90;99.90
33328;DHT22;19692;52.998;9.116;2024-01-06T12:56:37;0.90;99.90
33328;DHT22;19692;52.998;9.116;2024-01-06T12:59:02;0.80;99.90
33328;DHT22;19692;52.998;9.116;2024-01-06T13:01:29;0.90;99.90
33328;DHT22;19692;52.998;9.116;2024-01-06T13:03:55;0.80;99.90
33328;DHT22;19692;52.998;9.116;2024-01-06T13:06:21;0.80;99.90
33328;DHT22;19692;52.998;9.116;2024-01-06T13:08:46;0.90;99.90
33328;DHT22;19692;52.998;9.116;2024-01-06T13:11:13;0.80;99.90
33328;DHT22;19692;52.998;9.116;2024-01-06T13:13:38;0.80;99.90
33328;DHT22;19692;52.998;9.116;2024-01-06T13:16:04;0.80;99.90
33328;DHT22;19692;52.998;9.116;2024-01-06T13:18:31;0.80;99.90
33328;DHT22;19692;52.998;9.116;2024-01-06T13:20:57;0.80;99.90
33328;DHT22;19692;52.998;9.116;2024-01-06T13:23:22;0.90;99.90
33328;DHT22;19692;52.998;9.116;2024-01-06T13:25:48;0.80;99.90
33328;DHT22;19692;52.998;9.116;2024-01-06T13:28:14;0.70;99.90
33328;DHT22;19692;52.998;9.116;2024-01-06T13:30:40;0.80;99.90
33328;DHT22;19692;52.998;9.116;2024-01-06T13:33:07;0.80;99.90
33328;DHT22;19692;52.998;9.116;2024-01-06T13:35:36;0.80;99.90
33328;DHT22;19692;52.998;9.116;2024-01-06T13:38:03;0.70;99.90
33328;DHT22;19692;52.998;9.116;2024-01-06T13:40:31;0.70;99.90
33328;DHT22;19692;52.998;9.116;2024-01-06T13:42:57;0.70;99.90
33328;DHT22;19692;52.998;9.116;2024-01-06T13:45:23;0.80;99.90
33328;DHT22;19692;52.998;9.116;2024-01-06T13:47:49;0.80;99.90
33328;DHT22;19692;52.998;9.116;2024-01-06T13:50:18;0.70;99.90
33328;DHT22;19692;52.998;9.116;2024-01-06T13:52:45;0.70;99.90
33328;DHT22;19692;52.998;9.116;2024-01-06T13:55:14;0.60;99.90
33328;DHT22;19692;52.998;9.116;2024-01-06T13:57:40;0.70;99.90
33328;DHT22;19692;52.998;9.116;2024-01-06T14:00:10;0.60;99.90
33328;DHT22;19692;52.998;9.116;2024-01-06T14:02:37;0.70;99.90
33328;DHT22;19692;52.998;9.116;2024-01-06T14:05:04;0.60;99.90
33328;DHT22;19692;52.998;9.116;2024-01-06T14:07:34;0.60;99.90
33328;DHT22;19692;52.998;9.116;2024-01-06T14:10:01;0.60;99.90
33328;DHT22;19692;52.998;9.116;2024-01-06T14:12:28;0.60;99.90
33328;DHT22;19692;52.998;9.116;2024-01-06T14:14:55;0.60;99.90
33328;DHT22;19692;52.998;9.116;2024-01-06T14:17:21;0.60;99.90
33328;DHT22;19692;52.998;9.116;2024-01-06T14:19:47;0.60;99.90
33328;DHT22;19692;52.998;9.116;2024-01-06T14:22:13;0.60;99.90
33328;DHT22;19692;52.998;9.116;2024-01-06T14:24:40;0.50;99.90
33328;DHT22;19692;52.998;9.116;2024-01-06T14:27:05;0.50;99.90
33328;DHT22;19692;52.998;9.116;2024-01-06T14:29:31;0.50;99.90
33328;DHT22;19692;52.998;9.116;2024-01-06T14:31:57;0.50;99.90
33328;DHT22;19692;52.998;9.116;2024-01-06T14:34:23;0.50;99.90
33328;DHT22;19692;52.998;9.116;2024-01-06T14:36:50;0.50;99.90
33328;DHT22;19692;52.998;9.116;2024-01-06T14:39:18;0.50;99.90
33328;DHT22;19692;52.998;9.116;2024-01-06T14:41:48;0.60;99.90
33328;DHT22;19692;52.998;9.116;2024-01-06T14:44:14;0.50;99.90
33328;DHT22;19692;52.998;9.116;2024-01-06T14:46:40;0.50;99.90
33328;DHT22;19692;52.998;9.116;2024-01-06T14:49:07;0.50;99.90
33328;DHT22;19692;52.998;9.116;2024-01-06T14:51:33;0.50;99.90
33328;DHT22;19692;52.998;9.116;2024-01-06T14:53:59;0.50;99.90
33328;DHT22;19692;52.998;9.116;2024-01-06T14:56:25;0.50;99.90
33328;DHT22;19692;52.998;9.116;2024-01-06T14:58:51;0.50;99.90
33328;DHT22;19692;52.998;9.116;2024-01-06T15:01:17;0.50;99.90
33328;DHT22;19692;52.998;9.116;2024-01-06T15:03:43;0.50;99.90
33328;DHT22;19692;52.998;9.116;2024-01-06T15:06:11;0.50;99.90
33328;DHT22;19692;52.998;9.116;2024-01-06T15:08:37;0.50;99.90
33328;DHT22;19692;52.998;9.116;2024-01-06T15:11:03;0.40;99.90
33328;DHT22;19692;52.998;9.116;2024-01-06T15:13:29;0.50;99.90
33328;DHT22;19692;52.998;9.116;2024-01-06T15:15:56;0.50;99.90
33328;DHT22;19692;52.998;9.116;2024-01-06T15:18:22;0.50;99.90
33328;DHT22;19692;52.998;9.116;2024-01-06T15:20:49;0.60;99.90
33328;DHT22;19692;52.998;9.116;2024-01-06T15:23:14;0.50;99.90
33328;DHT22;19692;52.998;9.116;2024-01-06T15:25:40;0.50;99.90
33328;DHT22;19692;52.998;9.116;2024-01-06T15:28:07;0.50;99.90
33328;DHT22;19692;52.998;9.116;2024-01-06T15:30:33;0.50;99.90
33328;DHT22;19692;52.998;9.116;2024-01-06T15:32:59;0.50;99.90
33328;DHT22;19692;52.998;9.116;2024-01-06T15:35:25;0.50;99.90
33328;DHT22;19692;52.998;9.116;2024-01-06T15:37:52;0.50;99.90
33328;DHT22;19692;52.998;9.116;2024-01-06T15:40:17;0.40;99.90
33328;DHT22;19692;52.998;9.116;2024-01-06T15:42:43;0.40;99.90
33328;DHT22;19692;52.998;9.116;2024-01-06T15:45:09;0.40;99.90
33328;DHT22;19692;52.998;9.116;2024-01-06T15:47:37;0.40;99.90